Flight Track Log - Related Links

Times and Time Zones

All times are in EDT time to prevent confusion due to time zone crossing. See the N521PM flight status page for this flight to view local times or setup timezone preferences in your user account.

Time Position Orientation Groundspeed Altitude Reporting Facility
EDT Latitude Longitude Course Direction KTS MPH feet Rate Location/Type
Sat 12:08:02 PM 26.2067 -80.1853 310° West 135 155 600  Level Miami Center
Sat 12:09:16 PM 26.2353 -80.2231 310° West 146 168 2,300 1,535 Climbing Miami Center
Sat 12:09:28 PM 26.2453 -80.2392 305° West 163 188 2,800 1,238 Climbing Miami Center
Sat 12:10:19 PM 26.2567 -80.2822 286° West 179 206 3,600 1,082 Climbing Miami Center
Sat 12:10:29 PM 26.2586 -80.2936 281° West 186 214 3,900 1,548 Climbing Miami Center
Sat 12:11:21 PM 26.2703 -80.3347 288° West 178 205 5,200 1,500 Climbing Miami Center
Sat 12:12:25 PM 26.2947 -80.3847 299° West 173 199 6,800 1,355 Climbing Miami Center
Sat 12:13:25 PM 26.3039 -80.4328 282° West 170 196 8,000 1,122 Climbing Miami Center
Sat 12:14:28 PM 26.3042 -80.4892 270° West 170 196 9,100 480 Climbing Miami Center
Sat 12:15:30 PM 26.3050 -80.5531 271° West 207 238 9,000 -48 Descending Miami Center
Sat 12:16:32 PM 26.3058 -80.6283 271° West 223 257 9,000  Level Miami Center
Sat 12:17:34 PM 26.3372 -80.6825 303° West 244 281 9,000 96 Level Miami Center
Sat 12:18:37 PM 26.4017 -80.7119 338° Northwest 238 274 9,200 624 Climbing Miami Center
Sat 12:19:39 PM 26.4511 -80.7431 331° Northwest 201 231 10,300 484 Climbing Miami Center
Sat 12:20:41 PM 26.5011 -80.7861 322° Northwest 220 253 10,200 288 Descending Miami Center
Sat 12:21:44 PM 26.5478 -80.8281 321° Northwest 215 247 10,900 768 Climbing Miami Center
Sat 12:22:46 PM 26.5947 -80.8594 329° Northwest 189 217 11,800 1,016 Climbing Miami Center
Sat 12:23:48 PM 26.6433 -80.8947 327° Northwest 198 228 13,000 968 Climbing Miami Center
Sat 12:24:50 PM 26.6822 -80.9400 314° West 192 221 13,800 864 Climbing Miami Center
Sat 12:25:53 PM 26.7272 -80.9789 322° Northwest 194 223 14,800 864 Climbing Miami Center
Sat 12:26:55 PM 26.7767 -81.0078 332° Northwest 192 221 15,600 823 Climbing Miami Center
Sat 12:27:57 PM 26.8247 -81.0392 330° Northwest 192 221 16,500 768 Climbing Miami Center
Sat 12:29:00 PM 26.8633 -81.0839 314° West 192 221 17,200 576 Climbing Miami Center
Sat 12:30:02 PM 26.9036 -81.1258 317° Northwest 198 228 17,700 532 Climbing Miami Center
Sat 12:31:04 PM 26.9500 -81.1561 330° Northwest 202 232 18,300 774 Climbing Miami Center
Sat 12:32:06 PM 26.9961 -81.1822 333° Northwest 187 215 19,300 768 Climbing Miami Center
Sat 12:33:09 PM 27.0339 -81.2181 320° Northwest 181 208 19,900 624 Climbing Miami Center
Sat 12:34:11 PM 27.0756 -81.2656 315° West 180 207 20,600 677 Climbing Miami Center
Sat 12:35:13 PM 27.1178 -81.2953 328° Northwest 180 207 21,300 581 Climbing Miami Center
Sat 12:36:15 PM 27.1603 -81.3244 329° Northwest 180 207 21,800 480 Climbing Miami Center
Sat 12:37:18 PM 27.1992 -81.3592 322° Northwest 180 207 22,300 528 Climbing Miami Center
Sat 12:38:20 PM 27.2489 -81.3997 324° Northwest 181 208 22,900 532 Climbing Miami Center
Sat 12:39:22 PM 27.2894 -81.4300 326° Northwest 181 208 23,400 432 Climbing Miami Center
Sat 12:40:25 PM 27.3297 -81.4689 319° Northwest 181 208 23,800 336 Climbing Miami Center
Sat 12:41:27 PM 27.3739 -81.5044 324° Northwest 184 212 24,100 145 Climbing Miami Center
Sat 12:42:29 PM 27.4219 -81.5433 324° Northwest 201 231 24,100  Level Miami Center
Sat 12:43:31 PM 27.4711 -81.5856 323° Northwest 212 244 24,100  Level Miami Center
Sat 12:44:34 PM 27.5236 -81.6264 325° Northwest 215 247 24,100  Level Miami Center
Sat 12:45:36 PM 27.5767 -81.6689 325° Northwest 223 257 24,100  Level Miami Center
Sat 12:46:38 PM 27.6264 -81.7161 320° Northwest 223 257 24,100  Level Miami Center
Sat 12:47:41 PM 27.6800 -81.7583 325° Northwest 223 257 24,100  Level Miami Center
Sat 12:48:43 PM 27.7300 -81.7961 326° Northwest 226 260 24,100  Level Miami Center
Sat 12:49:45 PM 27.7794 -81.8456 319° Northwest 227 261 24,100  Level Miami Center
Sat 12:50:47 PM 27.8289 -81.8836 326° Northwest 226 260 24,100  Level Miami Center
Sat 12:51:50 PM 27.8822 -81.9206 329° Northwest 226 260 24,100  Level Miami Center
Sat 12:52:52 PM 27.9278 -81.9683 317° Northwest 225 259 24,100  Level Miami Center
Sat 12:53:54 PM 27.9869 -82.0175 324° Northwest 219 252 24,100  Level Miami Center
Sat 12:54:57 PM 28.0425 -82.0531 331° Northwest 224 258 24,100  Level Miami Center
Sat 12:55:59 PM 28.0981 -82.0894 330° Northwest 227 261 24,100  Level Miami Center
Sat 12:57:01 PM 28.1517 -82.1272 328° Northwest 227 261 24,100  Level Miami Center
Sat 12:58:04 PM 28.2039 -82.1636 328° Northwest 224 258 24,100  Level Miami Center
Sat 12:59:09 PM 28.2567 -82.2186 317° Northwest 227 261 24,100  Level Jacksonville Center
Sat 01:00:09 PM 28.2903 -82.2797 302° West 220 253 24,100  Level Jacksonville Center
Sat 01:01:09 PM 28.3239 -82.3361 304° West 225 259 24,100  Level Jacksonville Center
Sat 01:02:09 PM 28.3619 -82.3972 305° West 225 259 24,100  Level Jacksonville Center
Sat 01:03:09 PM 28.3953 -82.4536 304° West 225 259 24,100  Level Jacksonville Center
Sat 01:04:09 PM 28.4311 -82.5150 304° West 225 259 24,100  Level Jacksonville Center
Sat 01:05:09 PM 28.4647 -82.5739 303° West 225 259 24,100  Level Jacksonville Center
Sat 01:06:09 PM 28.4981 -82.6350 302° West 230 265 24,100  Level Jacksonville Center
Sat 01:07:09 PM 28.5317 -82.6942 303° West 230 265 24,100  Level Jacksonville Center
Sat 01:08:09 PM 28.5650 -82.7531 303° West 230 265 24,100  Level Jacksonville Center
Sat 01:09:09 PM 28.6006 -82.8169 302° West 230 265 24,100  Level Jacksonville Center
Sat 01:10:09 PM 28.6342 -82.8761 303° West 230 265 24,100  Level Jacksonville Center
Sat 01:11:09 PM 28.6758 -82.9281 312° West 230 265 24,100  Level Jacksonville Center
Sat 01:12:09 PM 28.7364 -82.9517 341° North 211 243 24,100  Level Jacksonville Center
Sat 01:13:09 PM 28.7989 -82.9542 358° North 206 237 24,100  Level Jacksonville Center
Sat 01:14:09 PM 28.8594 -82.9636 352° North 211 243 24,100  Level Jacksonville Center
Sat 01:15:09 PM 28.9242 -82.9733 353° North 223 257 24,100  Level Jacksonville Center
Sat 01:16:09 PM 28.9867 -82.9803 354° North 223 257 24,100  Level Jacksonville Center
Sat 01:17:09 PM 29.0494 -82.9922 351° North 223 257 24,100  Level Jacksonville Center
Sat 01:18:09 PM 29.1100 -83.0019 352° North 223 257 24,100  Level Jacksonville Center
Sat 01:19:09 PM 29.1706 -83.0186 346° North 223 257 24,100  Level Jacksonville Center
Sat 01:20:09 PM 29.2308 -83.0331 348° North 218 251 24,100  Level Jacksonville Center
Sat 01:21:09 PM 29.2914 -83.0472 348° North 218 251 24,100  Level Jacksonville Center
Sat 01:22:09 PM 29.3458 -83.0761 335° Northwest 218 251 24,100  Level Jacksonville Center
Sat 01:23:09 PM 29.4042 -83.1047 337° Northwest 218 251 24,100  Level Jacksonville Center
Sat 01:24:09 PM 29.4625 -83.1286 340° North 218 251 24,100  Level Jacksonville Center
Sat 01:25:09 PM 29.5147 -83.1550 336° Northwest 227 261 24,100  Level Jacksonville Center
Sat 01:26:09 PM 29.5753 -83.1817 339° North 227 261 24,100  Level Jacksonville Center
Sat 01:27:09 PM 29.6336 -83.2081 339° North 227 261 24,100  Level Jacksonville Center
Sat 01:28:09 PM 29.6897 -83.2344 338° Northwest 227 261 24,100  Level Jacksonville Center
Sat 01:29:09 PM 29.7461 -83.2611 338° Northwest 222 255 24,100  Level Jacksonville Center
Sat 01:30:09 PM 29.8044 -83.2900 337° Northwest 222 255 24,100  Level Jacksonville Center
Sat 01:31:09 PM 29.8650 -83.3142 341° North 222 255 24,100  Level Jacksonville Center
Sat 01:32:09 PM 29.9233 -83.3408 338° Northwest 222 255 24,100  Level Jacksonville Center
Sat 01:33:09 PM 29.9817 -83.3675 338° Northwest 222 255 24,100  Level Jacksonville Center
Sat 01:34:09 PM 30.0381 -83.3917 340° North 222 255 24,100  Level Jacksonville Center
Sat 01:35:09 PM 30.0964 -83.4208 337° Northwest 222 255 24,100  Level Jacksonville Center
Sat 01:36:09 PM 30.1547 -83.4450 340° North 222 255 24,100  Level Jacksonville Center
Sat 01:37:09 PM 30.2131 -83.4742 337° Northwest 222 255 24,100  Level Jacksonville Center
Sat 01:38:09 PM 30.2714 -83.5011 338° Northwest 222 255 24,100  Level Jacksonville Center
Sat 01:39:09 PM 30.3297 -83.5256 340° North 222 255 24,100  Level Jacksonville Center
Sat 01:40:09 PM 30.3881 -83.5547 337° Northwest 222 255 24,100  Level Jacksonville Center
Sat 01:41:09 PM 30.4464 -83.5842 336° Northwest 222 255 24,100  Level Jacksonville Center
Sat 01:42:09 PM 30.5047 -83.6061 342° North 222 255 24,100  Level Jacksonville Center
Sat 01:43:09 PM 30.5672 -83.6356 338° Northwest 222 255 24,100  Level Jacksonville Center
Sat 01:44:09 PM 30.6253 -83.6628 338° Northwest 222 255 24,100  Level Jacksonville Center
Sat 01:45:09 PM 30.6817 -83.6922 336° Northwest 222 255 24,100  Level Jacksonville Center
Sat 01:46:09 PM 30.7400 -83.7192 338° Northwest 216 249 24,100  Level Jacksonville Center
Sat 01:47:09 PM 30.7961 -83.7511 334° Northwest 216 249 24,100  Level Jacksonville Center
Sat 01:48:09 PM 30.8522 -83.7806 336° Northwest 216 249 24,100  Level Jacksonville Center
Sat 01:49:09 PM 30.9083 -83.8103 336° Northwest 216 249 24,100  Level Jacksonville Center
Sat 01:50:09 PM 30.9644 -83.8422 334° Northwest 216 249 24,100  Level Jacksonville Center
Sat 01:51:09 PM 31.0081 -83.8669 334° Northwest 216 249 24,100  Level Jacksonville Center
Sat 01:52:09 PM 31.0686 -83.8992 335° Northwest 216 249 24,100  Level Jacksonville Center
Sat 01:53:09 PM 31.1225 -83.9289 335° Northwest 216 249 24,100  Level Jacksonville Center
Sat 01:54:09 PM 31.1786 -83.9586 336° Northwest 216 249 24,100  Level Jacksonville Center
Sat 01:55:09 PM 31.2369 -83.9836 340° North 216 249 24,100  Level Jacksonville Center
Sat 01:56:51 PM 31.3375 -84.0267 340° North 218 251 24,100  Level Atlanta Center
Sat 01:57:51 PM 31.3919 -84.0608 332° Northwest 218 251 24,100  Level Atlanta Center
Sat 01:58:51 PM 31.4503 -84.0850 341° North 218 251 24,100  Level Atlanta Center
Sat 01:59:51 PM 31.5067 -84.1119 338° Northwest 212 244 24,100  Level Atlanta Center
Sat 02:00:51 PM 31.5692 -84.1289 347° North 217 250 24,100  Level Atlanta Center
Sat 02:01:51 PM 31.6256 -84.1558 338° Northwest 217 250 24,100  Level Atlanta Center
Sat 02:02:51 PM 31.6819 -84.1878 334° Northwest 222 255 24,100  Level Atlanta Center
Sat 02:03:51 PM 31.7381 -84.2147 338° Northwest 222 255 24,100  Level Atlanta Center
Sat 02:04:51 PM 31.7944 -84.2442 336° Northwest 222 255 24,100  Level Atlanta Center
Sat 02:05:51 PM 31.8528 -84.2736 337° Northwest 217 250 24,100  Level Atlanta Center
Sat 02:06:51 PM 31.9092 -84.3006 338° Northwest 217 250 24,100  Level Atlanta Center
Sat 02:07:51 PM 31.9611 -84.3400 327° Northwest 217 250 24,100  Level Atlanta Center
Sat 02:08:51 PM 32.0008 -84.3744 324° Northwest 217 250 24,100  Level Atlanta Center
Sat 02:09:51 PM 32.0550 -84.4186 325° Northwest 222 255 24,100  Level Atlanta Center
Sat 02:10:51 PM 32.1050 -84.4631 323° Northwest 222 255 24,100  Level Atlanta Center
Sat 02:11:51 PM 32.1547 -84.5050 324° Northwest 222 255 24,100  Level Atlanta Center
Sat 02:12:51 PM 32.2089 -84.5494 325° Northwest 222 255 24,100  Level Atlanta Center
Sat 02:13:51 PM 32.2567 -84.5939 322° Northwest 222 255 24,100  Level Atlanta Center
Sat 02:14:51 PM 32.3067 -84.6408 322° Northwest 228 262 24,100  Level Atlanta Center
Sat 02:15:51 PM 32.3586 -84.6831 326° Northwest 228 262 24,100  Level Atlanta Center
Sat 02:16:51 PM 32.4083 -84.7278 323° Northwest 228 262 24,100  Level Atlanta Center
Sat 02:17:51 PM 32.4625 -84.7700 327° Northwest 228 262 24,100  Level Atlanta Center
Sat 02:18:51 PM 32.5164 -84.8122 327° Northwest 228 262 24,100  Level Atlanta Center
Sat 02:19:51 PM 32.5706 -84.8572 325° Northwest 228 262 24,100  Level Atlanta Center
Sat 02:20:51 PM 32.6264 -84.9069 323° Northwest 233 268 24,100  Level Atlanta Center
Sat 02:21:51 PM 32.6722 -84.9469 324° Northwest 226 260 24,100  Level Atlanta Center
Sat 02:22:51 PM 32.7239 -84.9919 324° Northwest 226 260 24,100  Level Atlanta Center
Sat 02:23:51 PM 32.7778 -85.0394 323° Northwest 226 260 24,100  Level Atlanta Center
Sat 02:24:51 PM 32.8233 -85.0819 322° Northwest 233 268 24,100  Level Atlanta Center
Sat 02:25:51 PM 32.8731 -85.1269 323° Northwest 228 262 24,100  Level Atlanta Center
Sat 02:26:51 PM 32.9292 -85.1722 326° Northwest 221 254 24,100  Level Atlanta Center
Sat 02:27:51 PM 32.9831 -85.2150 326° Northwest 221 254 24,100  Level Atlanta Center
Sat 02:28:51 PM 33.0347 -85.2581 325° Northwest 221 254 24,100  Level Atlanta Center
Sat 02:29:51 PM 33.0822 -85.3008 323° Northwest 226 260 24,100  Level Atlanta Center
Sat 02:30:51 PM 33.1319 -85.3411 326° Northwest 226 260 24,100  Level Atlanta Center
Sat 02:31:51 PM 33.1858 -85.3842 326° Northwest 226 260 24,100  Level Atlanta Center
Sat 02:32:51 PM 33.2375 -85.4247 327° Northwest 219 252 24,100  Level Atlanta Center
Sat 02:33:51 PM 33.2892 -85.4653 327° Northwest 219 252 24,100  Level Atlanta Center
Sat 02:34:51 PM 33.3408 -85.5083 325° Northwest 219 252 24,100  Level Atlanta Center
Sat 02:35:51 PM 33.3967 -85.5517 327° Northwest 225 259 24,100  Level Atlanta Center
Sat 02:36:51 PM 33.4442 -85.5897 326° Northwest 220 253 24,100  Level Atlanta Center
Sat 02:37:51 PM 33.4981 -85.6331 326° Northwest 220 253 24,100  Level Atlanta Center
Sat 02:38:51 PM 33.5517 -85.6764 326° Northwest 220 253 24,100  Level Atlanta Center
Sat 02:39:51 PM 33.6053 -85.7175 327° Northwest 220 253 24,100  Level Atlanta Center
Sat 02:40:51 PM 33.6550 -85.7608 324° Northwest 220 253 24,100  Level Atlanta Center
Sat 02:41:51 PM 33.7147 -85.8019 330° Northwest 220 253 24,100  Level Atlanta Center
Sat 02:42:51 PM 33.7706 -85.8406 330° Northwest 225 259 24,100  Level Atlanta Center
Sat 02:43:51 PM 33.8200 -85.8817 325° Northwest 225 259 24,100  Level Atlanta Center
Sat 02:44:51 PM 33.8739 -85.9228 328° Northwest 230 265 24,100  Level Atlanta Center
Sat 02:45:51 PM 33.9339 -85.9567 335° Northwest 230 265 24,100  Level Atlanta Center
Sat 02:46:51 PM 33.9897 -85.9856 337° Northwest 224 258 24,100  Level Atlanta Center
Sat 02:47:51 PM 34.0497 -86.0169 337° Northwest 219 252 24,100  Level Atlanta Center
Sat 02:48:51 PM 34.1078 -86.0483 336° Northwest 219 252 24,100  Level Atlanta Center
Sat 02:49:51 PM 34.1656 -86.0800 336° Northwest 219 252 24,100  Level Atlanta Center
Sat 02:50:51 PM 34.2236 -86.1089 338° Northwest 219 252 24,100  Level Atlanta Center
Sat 02:51:51 PM 34.2794 -86.1406 335° Northwest 219 252 24,100  Level Atlanta Center
Sat 02:52:51 PM 34.3350 -86.1744 333° Northwest 219 252 24,100  Level Atlanta Center
Sat 02:53:51 PM 34.3928 -86.2114 332° Northwest 219 252 24,100  Level Atlanta Center
Sat 02:54:51 PM 34.4486 -86.2453 333° Northwest 219 252 24,100  Level Atlanta Center
Sat 02:55:40 PM 34.4944 -86.2719 334° Northwest 227 261 24,100  Level Memphis Center
Sat 02:56:42 PM 34.5572 -86.2867 349° North 228 262 24,100  Level Memphis Center
Sat 02:57:44 PM 34.6208 -86.3008 350° North 230 265 24,100  Level Memphis Center
Sat 02:58:45 PM 34.6853 -86.3128 351° North 231 266 24,100  Level Memphis Center
Sat 02:59:47 PM 34.7489 -86.3253 351° North 231 266 24,100  Level Memphis Center
Sat 03:00:48 PM 34.8139 -86.3397 350° North 233 268 24,100  Level Memphis Center
Sat 03:01:50 PM 34.8906 -86.3561 350° North 235 270 24,100  Level Memphis Center
Sat 03:02:52 PM 34.9558 -86.3681 351° North 235 270 24,100  Level Memphis Center
Sat 03:03:53 PM 35.0200 -86.3797 352° North 235 270 24,100  Level Memphis Center
Sat 03:04:55 PM 35.0853 -86.3919 351° North 235 270 24,100  Level Memphis Center
Sat 03:05:57 PM 35.1503 -86.4050 351° North 235 270 24,100  Level Memphis Center
Sat 03:06:58 PM 35.2167 -86.4169 352° North 235 270 24,100  Level Memphis Center
Sat 03:08:00 PM 35.2822 -86.4308 350° North 236 272 24,100  Level Memphis Center
Sat 03:09:01 PM 35.3611 -86.4400 355° North 237 273 24,100  Level Memphis Center
Sat 03:10:03 PM 35.4258 -86.4525 351° North 236 272 24,100  Level Memphis Center
Sat 03:11:05 PM 35.4914 -86.4631 353° North 236 272 24,100  Level Memphis Center
Sat 03:12:06 PM 35.5569 -86.4739 352° North 236 272 24,100  Level Memphis Center
Sat 03:13:08 PM 35.6225 -86.4844 353° North 236 272 24,100  Level Memphis Center
Sat 03:14:10 PM 35.6894 -86.4942 353° North 236 272 24,100  Level Memphis Center
Sat 03:15:11 PM 35.7547 -86.5061 352° North 237 273 24,100  Level Memphis Center
Sat 03:16:13 PM 35.8208 -86.5169 352° North 237 273 24,100  Level Memphis Center
Sat 03:17:14 PM 35.8861 -86.5275 353° North 237 273 24,100  Level Memphis Center
Sat 03:18:16 PM 35.9522 -86.5375 353° North 237 273 24,100  Level Memphis Center
Sat 03:19:18 PM 36.0292 -86.5489 353° North 237 273 24,100  Level Memphis Center
Sat 03:20:19 PM 36.0953 -86.5589 353° North 236 272 24,100  Level Memphis Center
Sat 03:21:21 PM 36.1606 -86.5683 353° North 236 272 24,100  Level Memphis Center
Sat 03:22:23 PM 36.2264 -86.5772 354° North 236 272 24,100  Level Memphis Center
Sat 03:23:24 PM 36.2919 -86.5858 354° North 236 272 24,100  Level Memphis Center
Sat 03:24:26 PM 36.3575 -86.5950 354° North 236 272 24,100  Level Memphis Center
Sat 03:25:27 PM 36.4242 -86.6036 354° North 237 273 24,100  Level Memphis Center
Sat 03:26:29 PM 36.4867 -86.6286 342° North 237 273 24,100  Level Memphis Center
Sat 03:27:31 PM 36.5536 -86.6717 333° Northwest 236 272 24,100  Level Memphis Center
Sat 03:28:32 PM 36.6136 -86.7014 338° Northwest 234 269 24,100  Level Memphis Center
Sat 03:29:34 PM 36.6725 -86.7331 337° Northwest 231 266 24,100  Level Memphis Center
Sat 03:30:35 PM 36.7314 -86.7661 336° Northwest 231 266 24,100  Level Memphis Center
Sat 03:31:37 PM 36.7906 -86.7969 337° Northwest 231 266 24,100  Level Memphis Center
Sat 03:32:39 PM 36.8494 -86.8294 336° Northwest 231 266 24,100  Level Memphis Center
Sat 03:33:40 PM 36.9094 -86.8617 337° Northwest 231 266 24,100  Level Memphis Center
Sat 03:34:42 PM 36.9697 -86.8947 336° Northwest 232 267 24,100  Level Memphis Center
Sat 03:35:44 PM 37.0311 -86.9264 338° Northwest 232 267 24,100  Level Memphis Center
Sat 03:36:45 PM 37.1019 -86.9642 337° Northwest 233 268 24,100  Level Memphis Center
Sat 03:37:47 PM 37.1628 -86.9981 336° Northwest 233 268 24,100  Level Memphis Center
Sat 03:38:48 PM 37.2253 -87.0306 338° Northwest 237 273 24,100  Level Memphis Center
Sat 03:39:50 PM 37.2864 -87.0653 336° Northwest 237 273 24,100  Level Memphis Center
Sat 03:40:52 PM 37.3486 -87.0956 339° North 237 273 24,100  Level Memphis Center
Sat 03:41:34 PM 37.3967 -87.1217 337° Northwest 237 273 24,100  Level Indianapolis Center
Sat 03:42:35 PM 37.4508 -87.1519 336° Northwest 237 273 24,100  Level Indianapolis Center
Sat 03:43:37 PM 37.5111 -87.1842 337° Northwest 237 273 24,100  Level Indianapolis Center
Sat 03:44:38 PM 37.5714 -87.2167 337° Northwest 237 273 24,100  Level Indianapolis Center
Sat 03:45:40 PM 37.6431 -87.2558 337° Northwest 236 272 24,100  Level Indianapolis Center
Sat 03:46:41 PM 37.7036 -87.2883 337° Northwest 236 272 24,100  Level Indianapolis Center
Sat 03:47:43 PM 37.7633 -87.3222 336° Northwest 236 272 24,100  Level Indianapolis Center
Sat 03:48:44 PM 37.8194 -87.3503 338° Northwest 236 272 24,100  Level Indianapolis Center
Sat 03:49:46 PM 37.8783 -87.3844 335° Northwest 236 272 24,100  Level Indianapolis Center
Sat 03:50:47 PM 37.9381 -87.4167 337° Northwest 234 269 24,100  Level Indianapolis Center
Sat 03:51:49 PM 37.9981 -87.4483 337° Northwest 234 269 24,100  Level Indianapolis Center
Sat 03:52:50 PM 38.0689 -87.4897 335° Northwest 234 269 24,100  Level Indianapolis Center
Sat 03:53:52 PM 38.1292 -87.5206 338° Northwest 234 269 24,100  Level Indianapolis Center
Sat 03:54:53 PM 38.1881 -87.5539 336° Northwest 233 268 24,100  Level Indianapolis Center
Sat 03:55:54 PM 38.2472 -87.5858 337° Northwest 233 268 24,100 -195 Level Indianapolis Center
Sat 03:56:56 PM 38.3061 -87.6192 336° Northwest 232 267 23,700 -968 Descending Indianapolis Center
Sat 03:57:58 PM 38.3731 -87.6600 334° Northwest 252 290 22,100 -1,122 Descending Indianapolis Center
Sat 03:58:59 PM 38.4419 -87.6947 338° Northwest 264 304 21,400 -1,024 Descending Indianapolis Center
Sat 04:00:01 PM 38.5081 -87.7283 338° Northwest 260 299 20,000 -1,317 Descending Indianapolis Center
Sat 04:01:02 PM 38.5725 -87.7714 332° Northwest 260 299 18,700 -1,317 Descending Indianapolis Center
Sat 04:02:04 PM 38.6403 -87.8039 339° North 260 299 17,300 -1,268 Descending Indianapolis Center
Sat 04:03:05 PM 38.7072 -87.8425 336° Northwest 260 299 16,100 -1,268 Descending Indianapolis Center
Sat 04:04:07 PM 38.7706 -87.8775 337° Northwest 256 295 14,700 -1,512 Descending Indianapolis Center
Sat 04:05:08 PM 38.8481 -87.9219 336° Northwest 252 290 13,000 -1,561 Descending Indianapolis Center
Sat 04:06:10 PM 38.9106 -87.9567 337° Northwest 250 288 11,500 -1,403 Descending Indianapolis Center
Sat 04:07:12 PM 38.9742 -87.9922 337° Northwest 249 287 10,100 -1,317 Descending Indianapolis Center
Sat 04:08:13 PM 39.0386 -88.0292 336° Northwest 250 288 8,800 -1,268 Descending Indianapolis Center
Sat 04:09:15 PM 39.1017 -88.0622 338° Northwest 249 287 7,500 -1,415 Descending Indianapolis Center
Sat 04:10:16 PM 39.1636 -88.1003 335° Northwest 244 281 5,900 -1,417 Descending Indianapolis Center
Sat 04:11:39 PM 39.2542 -88.1525 336° Northwest 247 284 4,100 -786 Descending Kansas City Center
Sat 04:12:41 PM 39.3156 -88.1875 336° Northwest 247 284 4,000 -97 Descending Kansas City Center
Sat 04:14:00 PM 39.3936 -88.2301 339° North  Level FlightAware Approximate
Sat 04:21:00 PM 39.4667 -88.2667 339° North  Level FlightAware Approximate

Login

Don't have an account? Register now (free) for customized features, flight alerts, and more!